Time;durP1;ratioP1;P1;durP2;ratioP2;P2;SDS_P1;SDS_P2;PMS_P1;PMS_P2;Temp;Humidity;BMP_temperature;BMP_pressure;BME280_temperature;BME280_humidity;BME280_pressure;Samples;Min_cycle;Max_cycle;Signal;HPM_P1;HPM_P2
2021/08/27 00:02:11;;;;;;;12.10;10.90;;;;;;;;;;4979038;28;20023;-68
2021/08/27 00:04:37;;;;;;;11.35;10.25;;;;;;;;;;4970748;28;20033;-68
2021/08/27 00:07:04;;;;;;;10.57;9.55;;;;;;;;;;4973131;28;20031;-68
2021/08/27 00:09:30;;;;;;;10.85;9.77;;;;;;;;;;4973281;28;20081;-68
2021/08/27 00:11:56;;;;;;;12.20;9.27;;;;;;;;;;4959321;28;20038;-67
2021/08/27 00:14:23;;;;;;;9.07;8.18;;;;;;;;;;4969696;28;20038;-67
2021/08/27 00:16:49;;;;;;;9.27;8.27;;;;;;;;;;4972966;28;20051;-68
2021/08/27 00:19:15;;;;;;;9.30;8.00;;;;;;;;;;4973273;28;20417;-68
2021/08/27 00:21:41;;;;;;;9.43;7.93;;;;;;;;;;4971959;28;20042;-68
2021/08/27 00:24:07;;;;;;;8.75;7.72;;;;;;;;;;4973887;28;20077;-66
2021/08/27 00:26:33;;;;;;;10.48;7.35;;;;;;;;;;4966884;28;20027;-68
2021/08/27 00:29:00;;;;;;;10.55;7.53;;;;;;;;;;4973353;28;20034;-68
2021/08/27 00:31:26;;;;;;;8.70;7.50;;;;;;;;;;4976141;28;20027;-68
2021/08/27 00:33:52;;;;;;;11.02;7.57;;;;;;;;;;4972746;28;20110;-68
2021/08/27 00:36:18;;;;;;;8.13;7.32;;;;;;;;;;4977011;28;20026;-67
2021/08/27 00:38:44;;;;;;;7.82;7.00;;;;;;;;;;4976748;28;20029;-68
2021/08/27 00:41:24;;;;;;;7.70;6.90;;;;;;;;;;4985321;28;20026;-68
2021/08/27 00:43:52;;;;;;;9.30;7.15;;;;;;;;;;4959271;28;20039;-67
2021/08/27 00:46:18;;;;;;;9.70;7.60;;;;;;;;;;4976412;28;20062;-67
2021/08/27 00:48:44;;;;;;;8.18;7.38;;;;;;;;;;4976543;28;20049;-67
2021/08/27 00:51:15;;;;;;;8.35;7.13;;;;;;;;;;4979135;28;20038;-68
2021/08/27 00:53:41;;;;;;;8.45;7.18;;;;;;;;;;4978278;28;20034;-67
2021/08/27 00:56:08;;;;;;;8.63;7.25;;;;;;;;;;4969280;28;20058;-66
2021/08/27 00:58:34;;;;;;;7.88;6.85;;;;;;;;;;4970185;28;20031;-66
2021/08/27 01:01:01;;;;;;;8.27;6.97;;;;;;;;;;4972379;28;20034;-67
2021/08/27 01:03:30;;;;;;;7.30;6.55;;;;;;;;;;4976488;28;20026;-67
2021/08/27 01:06:17;;;;;;;7.50;6.53;;;;;;;;;;4963274;28;20030;-68
2021/08/27 01:08:48;;;;;;;7.55;6.28;;;;;;;;;;4976015;28;20030;-67
2021/08/27 01:11:41;;;;;;;8.38;6.60;;;;;;;;;;4963594;28;20039;-68
2021/08/27 01:14:08;;;;;;;;;;;;;;;;;;4970861;28;20035;-68
2021/08/27 01:16:36;;;;;;;7.00;5.97;;;;;;;;;;4972941;28;19906;-67
2021/08/27 01:19:08;;;;;;;8.75;6.25;;;;;;;;;;4976144;28;20082;-67
2021/08/27 01:21:43;;;;;;;7.13;5.80;;;;;;;;;;4969259;28;20102;-67
2021/08/27 01:24:11;;;;;;;7.35;6.30;;;;;;;;;;4975195;28;20508;-67
2021/08/27 01:26:39;;;;;;;8.18;6.32;;;;;;;;;;4966419;28;20106;-68
2021/08/27 01:29:08;;;;;;;7.20;6.47;;;;;;;;;;4963435;28;20058;-68
2021/08/27 01:31:38;;;;;;;7.40;6.35;;;;;;;;;;4969735;28;20035;-68
2021/08/27 01:34:15;;;;;;;6.93;5.97;;;;;;;;;;4972725;28;20030;-68
2021/08/27 01:36:47;;;;;;;9.40;6.60;;;;;;;;;;4987401;28;20027;-67
2021/08/27 01:39:14;;;;;;;7.82;6.50;;;;;;;;;;4972287;28;20023;-66
2021/08/27 01:41:41;;;;;;;7.57;6.28;;;;;;;;;;4972086;28;20027;-66
2021/08/27 01:44:09;;;;;;;11.48;9.07;;;;;;;;;;4970669;28;20027;-68
2021/08/27 01:46:37;;;;;;;15.30;13.90;;;;;;;;;;4973921;28;20030;-68
2021/08/27 01:49:04;;;;;;;18.67;13.73;;;;;;;;;;4975712;28;20073;-68
2021/08/27 01:51:31;;;;;;;19.27;13.48;;;;;;;;;;4982829;28;20038;-67
2021/08/27 01:53:58;;;;;;;12.80;9.60;;;;;;;;;;4968359;28;20027;-68
2021/08/27 01:56:24;;;;;;;8.40;7.40;;;;;;;;;;4975624;28;20019;-65
2021/08/27 01:58:51;;;;;;;10.05;7.80;;;;;;;;;;4974767;28;20019;-67
2021/08/27 02:01:17;;;;;;;16.42;14.60;;;;;;;;;;4973598;28;20042;-67
2021/08/27 02:03:45;;;;;;;14.85;13.35;;;;;;;;;;4973018;28;20110;-68
2021/08/27 02:06:13;;;;;;;15.27;13.68;;;;;;;;;;4974543;28;20038;-67
2021/08/27 02:08:39;;;;;;;15.13;13.52;;;;;;;;;;4975149;28;20011;-67
2021/08/27 02:11:06;;;;;;;16.52;14.15;;;;;;;;;;4975201;28;20171;-67
2021/08/27 02:13:32;;;;;;;15.80;14.13;;;;;;;;;;4973201;28;20023;-67
2021/08/27 02:15:58;;;;;;;16.50;14.38;;;;;;;;;;4975234;28;20034;-68
2021/08/27 02:18:24;;;;;;;19.40;15.80;;;;;;;;;;4974134;28;20026;-67
2021/08/27 02:20:51;;;;;;;22.27;18.23;;;;;;;;;;4970383;28;20126;-66
2021/08/27 02:23:18;;;;;;;24.02;19.17;;;;;;;;;;4973296;28;20518;-67
2021/08/27 02:25:47;;;;;;;23.67;19.15;;;;;;;;;;4970557;28;20154;-67
2021/08/27 02:28:14;;;;;;;24.75;19.45;;;;;;;;;;4965268;28;20385;-67
2021/08/27 02:30:41;;;;;;;24.58;19.60;;;;;;;;;;4978562;28;20062;-65
2021/08/27 02:33:09;;;;;;;25.27;20.75;;;;;;;;;;4974147;28;20031;-67
2021/08/27 02:35:36;;;;;;;24.70;20.10;;;;;;;;;;4973732;28;20086;-65
2021/08/27 02:38:03;;;;;;;25.58;20.83;;;;;;;;;;4977388;28;20018;-67
2021/08/27 02:40:29;;;;;;;21.55;19.33;;;;;;;;;;4973990;28;20058;-68
2021/08/27 02:42:55;;;;;;;24.35;20.67;;;;;;;;;;4974039;28;20035;-68
2021/08/27 02:45:21;;;;;;;25.85;20.13;;;;;;;;;;4974534;28;20026;-67
2021/08/27 02:47:47;;;;;;;21.58;19.10;;;;;;;;;;4972730;28;20551;-68
2021/08/27 02:50:13;;;;;;;22.13;19.83;;;;;;;;;;4971426;28;20038;-68
2021/08/27 02:52:45;;;;;;;23.70;21.10;;;;;;;;;;4974103;28;20038;-68
2021/08/27 02:55:18;;;;;;;23.25;20.80;;;;;;;;;;4974530;28;20034;-68
2021/08/27 02:57:47;;;;;;;23.15;20.42;;;;;;;;;;4973195;28;20466;-67
2021/08/27 03:00:14;;;;;;;22.33;20.13;;;;;;;;;;4974150;28;20030;-68
2021/08/27 03:02:41;;;;;;;22.15;19.85;;;;;;;;;;4969721;28;20053;-68
2021/08/27 03:05:10;;;;;;;23.05;20.48;;;;;;;;;;4973777;28;20033;-68
2021/08/27 03:07:38;;;;;;;23.00;20.50;;;;;;;;;;4965198;28;20045;-68
2021/08/27 03:10:08;;;;;;;22.00;19.63;;;;;;;;;;4972384;28;20067;-67
2021/08/27 03:12:40;;;;;;;22.42;18.45;;;;;;;;;;4972955;28;20389;-67
2021/08/27 03:15:07;;;;;;;20.88;18.83;;;;;;;;;;4973441;28;20492;-66
2021/08/27 03:17:37;;;;;;;21.50;18.52;;;;;;;;;;4974245;28;20381;-67
2021/08/27 03:20:18;;;;;;;20.80;18.30;;;;;;;;;;4964637;28;20442;-67
2021/08/27 03:22:57;;;;;;;22.15;17.65;;;;;;;;;;4973588;28;20062;-68
2021/08/27 03:25:23;;;;;;;23.15;17.17;;;;;;;;;;4972830;28;20027;-68
2021/08/27 03:27:54;;;;;;;19.00;16.75;;;;;;;;;;4961273;28;20023;-68
2021/08/27 03:30:21;;;;;;;19.75;17.10;;;;;;;;;;4971981;28;20030;-69
2021/08/27 03:32:48;;;;;;;24.23;17.67;;;;;;;;;;4969903;28;20041;-67
2021/08/27 03:35:16;;;;;;;21.50;17.75;;;;;;;;;;4971463;28;20033;-68
2021/08/27 03:37:42;;;;;;;22.77;18.88;;;;;;;;;;4966434;28;20389;-67
2021/08/27 03:40:10;;;;;;;21.95;19.67;;;;;;;;;;4970318;28;20050;-68
2021/08/27 03:42:36;;;;;;;22.95;19.35;;;;;;;;;;4969491;28;20035;-66
2021/08/27 03:45:03;;;;;;;25.00;20.45;;;;;;;;;;4971066;28;20030;-68
2021/08/27 03:47:31;;;;;;;26.25;20.80;;;;;;;;;;4971034;28;20030;-68
2021/08/27 03:49:57;;;;;;;23.75;21.05;;;;;;;;;;4970297;28;20019;-67
2021/08/27 03:52:24;;;;;;;24.75;20.23;;;;;;;;;;4970925;28;20493;-67
2021/08/27 03:54:50;;;;;;;23.40;20.08;;;;;;;;;;4972771;28;20102;-67
2021/08/27 03:57:17;;;;;;;22.80;19.70;;;;;;;;;;4963108;28;20094;-68
2021/08/27 03:59:44;;;;;;;22.83;20.08;;;;;;;;;;4963520;28;20019;-68
2021/08/27 04:02:16;;;;;;;22.83;19.58;;;;;;;;;;4966996;28;20023;-68
2021/08/27 04:04:42;;;;;;;26.83;20.90;;;;;;;;;;4962250;28;20164;-67
2021/08/27 04:07:08;;;;;;;22.25;17.98;;;;;;;;;;4959605;28;20039;-67
2021/08/27 04:09:42;;;;;;;23.33;16.55;;;;;;;;;;4964753;28;20023;-68
2021/08/27 04:12:08;;;;;;;20.60;15.55;;;;;;;;;;4965299;28;20077;-67
2021/08/27 04:14:34;;;;;;;17.50;13.50;;;;;;;;;;4961050;28;20024;-68
2021/08/27 04:17:04;;;;;;;16.85;13.23;;;;;;;;;;4963247;28;20087;-67
2021/08/27 04:19:30;;;;;;;16.27;12.52;;;;;;;;;;4961756;28;20011;-68
2021/08/27 04:22:00;;;;;;;18.33;12.48;;;;;;;;;;4969476;28;20051;-68
2021/08/27 04:24:31;;;;;;;23.23;13.68;;;;;;;;;;4964123;28;20023;-68
2021/08/27 04:26:57;;;;;;;14.57;11.30;;;;;;;;;;4959806;28;20673;-66
2021/08/27 04:29:24;;;;;;;15.23;10.82;;;;;;;;;;4972106;28;20086;-67
2021/08/27 04:31:56;;;;;;;12.48;9.93;;;;;;;;;;4977231;28;20153;-69
2021/08/27 04:34:23;;;;;;;17.83;10.50;;;;;;;;;;4959472;28;20027;-67
2021/08/27 04:36:49;;;;;;;15.30;10.15;;;;;;;;;;4964108;28;20038;-68
2021/08/27 04:39:15;;;;;;;16.38;9.68;;;;;;;;;;4971538;28;20045;-67
2021/08/27 04:41:41;;;;;;;15.70;9.48;;;;;;;;;;4974979;28;20030;-66
2021/08/27 04:44:07;;;;;;;14.43;9.10;;;;;;;;;;4968346;28;20027;-67
2021/08/27 04:46:33;;;;;;;16.38;9.75;;;;;;;;;;4971945;28;20049;-68
2021/08/27 04:48:59;;;;;;;14.00;9.02;;;;;;;;;;4970203;28;20031;-68
2021/08/27 04:51:26;;;;;;;11.25;8.15;;;;;;;;;;4966197;28;20042;-70
2021/08/27 04:53:52;;;;;;;11.40;7.50;;;;;;;;;;4969849;28;20038;-72
2021/08/27 04:56:18;;;;;;;16.55;8.07;;;;;;;;;;4971782;28;20496;-69
2021/08/27 04:58:44;;;;;;;14.70;8.98;;;;;;;;;;4973088;28;20023;-72
2021/08/27 05:01:10;;;;;;;11.70;7.90;;;;;;;;;;4963063;28;20031;-67
2021/08/27 05:03:36;;;;;;;11.90;7.57;;;;;;;;;;4967771;28;20034;-65
2021/08/27 05:06:03;;;;;;;13.25;7.60;;;;;;;;;;4972804;28;20086;-72
2021/08/27 05:08:29;;;;;;;11.18;8.15;;;;;;;;;;4966188;28;20019;-66
2021/08/27 05:10:55;;;;;;;14.80;7.47;;;;;;;;;;4972324;28;20030;-71
2021/08/27 05:13:21;;;;;;;13.80;8.45;;;;;;;;;;4976291;28;20030;-65
2021/08/27 05:15:47;;;;;;;12.23;8.18;;;;;;;;;;4976158;28;20027;-65
2021/08/27 05:18:13;;;;;;;13.52;8.20;;;;;;;;;;4976069;28;20042;-72
2021/08/27 05:20:39;;;;;;;13.40;9.32;;;;;;;;;;4975773;28;20023;-64
2021/08/27 05:23:08;;;;;;;12.50;9.50;;;;;;;;;;4974882;28;20396;-64
2021/08/27 05:25:34;;;;;;;16.10;9.45;;;;;;;;;;4955977;28;20033;-63
2021/08/27 05:28:00;;;;;;;15.35;9.85;;;;;;;;;;4967807;28;20069;-63
2021/08/27 05:30:27;;;;;;;16.90;9.45;;;;;;;;;;4975448;28;20042;-70
2021/08/27 05:32:54;;;;;;;13.13;9.50;;;;;;;;;;4974213;28;20063;-67
2021/08/27 05:35:20;;;;;;;13.95;9.93;;;;;;;;;;4974549;28;20030;-68
2021/08/27 05:37:47;;;;;;;13.93;10.85;;;;;;;;;;4975089;28;20077;-71
2021/08/27 05:40:13;;;;;;;15.48;10.57;;;;;;;;;;4973124;28;20093;-68
2021/08/27 05:42:39;;;;;;;17.55;10.95;;;;;;;;;;4979842;28;20062;-74
2021/08/27 05:45:11;;;;;;;15.00;10.35;;;;;;;;;;4963120;28;20507;-75
2021/08/27 05:47:38;;;;;;;14.85;11.40;;;;;;;;;;4972296;28;20373;-77
2021/08/27 05:50:04;;;;;;;19.95;11.57;;;;;;;;;;4983400;28;20030;-73
2021/08/27 05:52:33;;;;;;;18.23;13.45;;;;;;;;;;4974781;28;20038;-74
2021/08/27 05:54:59;;;;;;;15.32;12.13;;;;;;;;;;4958753;28;20091;-69
2021/08/27 05:57:25;;;;;;;16.50;11.88;;;;;;;;;;4990753;28;20082;-69
2021/08/27 05:59:51;;;;;;;16.00;11.00;;;;;;;;;;4991502;28;20046;-76
2021/08/27 06:02:18;;;;;;;16.58;11.57;;;;;;;;;;4984124;28;20042;-70
2021/08/27 06:04:44;;;;;;;16.58;11.60;;;;;;;;;;4979168;28;20027;-70
2021/08/27 06:07:12;;;;;;;17.50;11.88;;;;;;;;;;4975398;28;20041;-66
2021/08/27 06:09:39;;;;;;;17.10;10.48;;;;;;;;;;4968481;28;20076;-64
2021/08/27 06:12:05;;;;;;;16.00;11.50;;;;;;;;;;4975338;28;20493;-67
2021/08/27 06:14:31;;;;;;;20.10;11.85;;;;;;;;;;4976610;28;20052;-76
2021/08/27 06:16:57;;;;;;;20.88;12.82;;;;;;;;;;4964626;28;20034;-73
2021/08/27 06:19:23;;;;;;;13.38;10.27;;;;;;;;;;4978520;28;20030;-75
2021/08/27 06:21:50;;;;;;;12.65;9.27;;;;;;;;;;4975741;28;20046;-74
2021/08/27 06:24:16;;;;;;;16.15;11.48;;;;;;;;;;4975960;28;20110;-72
2021/08/27 06:26:42;;;;;;;15.30;10.95;;;;;;;;;;4974308;28;20031;-70
2021/08/27 06:32:30;;;;;;;16.27;10.35;;;;;;;;;;4878124;29;20626;-73
2021/08/27 06:34:56;;;;;;;18.98;12.43;;;;;;;;;;4879893;29;20033;-69
2021/08/27 06:38:20;;;;;;;15.93;12.63;;;;;;;;;;4884002;29;20036;-68
2021/08/27 06:40:09;;;;;;;23.20;14.93;;;;;;;;;;4880747;29;21690;-69
2021/08/27 06:42:36;;;;;;;22.40;13.05;;;;;;;;;;4884064;29;20048;-76
2021/08/27 06:45:08;;;;;;;20.80;13.82;;;;;;;;;;4879221;29;20490;-73
2021/08/27 06:47:34;;;;;;;16.85;12.32;;;;;;;;;;4866559;29;20139;-70
2021/08/27 06:50:00;;;;;;;16.77;11.93;;;;;;;;;;4872967;29;20036;-74
2021/08/27 06:52:27;;;;;;;18.08;12.10;;;;;;;;;;4885813;29;20045;-70
2021/08/27 06:54:53;;;;;;;15.88;11.25;;;;;;;;;;4878086;29;20032;-73
2021/08/27 06:57:25;;;;;;;16.83;10.63;;;;;;;;;;4877664;29;20037;-72
2021/08/27 06:59:53;;;;;;;16.27;10.77;;;;;;;;;;4882686;29;20037;-70
2021/08/27 07:02:23;;;;;;;15.65;11.38;;;;;;;;;;4878376;29;20036;-75
2021/08/27 07:05:08;;;;;;;16.35;12.40;;;;;;;;;;4872659;29;20064;-74
2021/08/27 07:07:34;;;;;;;16.27;11.45;;;;;;;;;;4922960;29;20039;-75
2021/08/27 07:10:03;;;;;;;16.70;12.25;;;;;;;;;;4970194;28;20162;-72
2021/08/27 07:12:29;;;;;;;17.23;11.43;;;;;;;;;;4970426;28;20067;-73
2021/08/27 07:14:59;;;;;;;15.00;11.63;;;;;;;;;;4965054;28;20026;-70
2021/08/27 07:17:25;;;;;;;17.35;12.30;;;;;;;;;;4968276;28;20037;-70
2021/08/27 07:20:07;;;;;;;18.80;12.18;;;;;;;;;;4983331;28;20027;-71
2021/08/27 07:22:40;;;;;;;15.80;11.65;;;;;;;;;;4968472;28;20047;-73
2021/08/27 07:25:06;;;;;;;16.67;11.68;;;;;;;;;;4985570;28;20030;-71
2021/08/27 07:27:35;;;;;;;13.73;10.30;;;;;;;;;;4973950;28;20030;-76
2021/08/27 07:30:01;;;;;;;14.15;10.13;;;;;;;;;;4977152;28;20164;-73
2021/08/27 07:32:34;;;;;;;11.77;9.40;;;;;;;;;;4972273;28;20035;-72
2021/08/27 07:35:00;;;;;;;16.37;11.37;;;;;;;;;;4968464;28;20694;-75
2021/08/27 07:37:26;;;;;;;13.07;10.38;;;;;;;;;;4965846;28;20074;-75
2021/08/27 07:39:58;;;;;;;13.63;10.40;;;;;;;;;;4971452;28;20022;-77
2021/08/27 07:42:27;;;;;;;14.95;10.70;;;;;;;;;;4999064;28;20026;-78
2021/08/27 07:45:03;;;;;;;14.68;10.07;;;;;;;;;;4967091;28;20053;-76
2021/08/27 07:47:30;;;;;;;17.02;10.20;;;;;;;;;;4959805;28;20516;-68
2021/08/27 07:49:56;;;;;;;15.68;10.50;;;;;;;;;;4972148;28;20073;-68
2021/08/27 07:52:22;;;;;;;14.10;10.00;;;;;;;;;;4977766;28;20034;-64
2021/08/27 07:54:48;;;;;;;19.75;12.00;;;;;;;;;;4972501;28;20441;-67
2021/08/27 07:57:14;;;;;;;17.00;11.13;;;;;;;;;;4973105;28;20109;-71
2021/08/27 07:59:40;;;;;;;13.82;10.02;;;;;;;;;;4980821;28;20007;-70
2021/08/27 08:02:09;;;;;;;16.08;10.85;;;;;;;;;;4993231;28;20223;-73
2021/08/27 08:04:35;;;;;;;14.57;10.52;;;;;;;;;;4984835;28;20045;-66
2021/08/27 08:07:01;;;;;;;17.27;11.23;;;;;;;;;;4963825;28;20366;-73
2021/08/27 08:09:27;;;;;;;14.63;10.85;;;;;;;;;;4971924;28;20031;-66
2021/08/27 08:11:53;;;;;;;14.57;9.98;;;;;;;;;;4955420;28;20405;-70
2021/08/27 08:14:20;;;;;;;13.65;10.23;;;;;;;;;;4972978;28;20030;-72
2021/08/27 08:16:46;;;;;;;15.93;11.35;;;;;;;;;;4972452;28;20033;-70
2021/08/27 08:19:12;;;;;;;16.15;10.88;;;;;;;;;;4972805;28;20473;-65
2021/08/27 08:21:38;;;;;;;15.45;11.30;;;;;;;;;;4977131;28;20052;-74
2021/08/27 08:24:05;;;;;;;15.52;10.48;;;;;;;;;;4979220;28;20517;-75
2021/08/27 08:26:31;;;;;;;14.93;9.23;;;;;;;;;;4962841;28;20035;-70
2021/08/27 08:28:58;;;;;;;12.88;9.27;;;;;;;;;;4972526;28;20031;-73
2021/08/27 08:31:24;;;;;;;15.38;9.05;;;;;;;;;;4976117;28;20039;-77
2021/08/27 08:33:51;;;;;;;11.68;9.00;;;;;;;;;;4975365;28;20027;-72
2021/08/27 08:36:36;;;;;;;18.67;9.27;;;;;;;;;;4962110;28;20030;-71
2021/08/27 08:39:04;;;;;;;12.65;8.85;;;;;;;;;;4955013;28;20081;-68
2021/08/27 08:41:30;;;;;;;13.27;9.40;;;;;;;;;;4973212;28;20043;-76
2021/08/27 08:43:56;;;;;;;12.10;8.85;;;;;;;;;;4967024;28;20023;-72
2021/08/27 08:46:25;;;;;;;13.35;9.18;;;;;;;;;;4974832;28;20117;-70
2021/08/27 08:48:51;;;;;;;11.48;8.70;;;;;;;;;;4974508;28;20019;-69
2021/08/27 08:51:33;;;;;;;;;;;;;;;;;;;;;
2021/08/27 08:54:09;;;;;;;13.90;9.90;;;;;;;;;;4975633;28;20358;-73
2021/08/27 08:56:36;;;;;;;15.15;10.43;;;;;;;;;;4959499;28;20113;-76
2021/08/27 08:59:02;;;;;;;13.75;9.77;;;;;;;;;;4974446;28;20058;-75
2021/08/27 09:01:28;;;;;;;15.60;10.10;;;;;;;;;;4975182;28;20481;-69
2021/08/27 09:04:00;;;;;;;13.40;9.95;;;;;;;;;;4973888;28;20425;-75
2021/08/27 09:06:43;;;;;;;13.20;10.65;;;;;;;;;;4949147;28;20046;-74
2021/08/27 09:09:09;;;;;;;19.60;10.82;;;;;;;;;;4975614;28;20039;-74
2021/08/27 09:11:43;;;;;;;13.25;10.23;;;;;;;;;;4968603;28;20026;-72
2021/08/27 09:14:14;;;;;;;16.17;11.75;;;;;;;;;;4968565;28;20024;-70
2021/08/27 09:16:40;;;;;;;16.55;12.10;;;;;;;;;;4969066;28;20042;-74
2021/08/27 09:19:16;;;;;;;14.05;10.73;;;;;;;;;;4969599;28;20023;-75
2021/08/27 09:21:57;;;;;;;13.18;10.05;;;;;;;;;;4957140;28;20107;-74
2021/08/27 09:24:27;;;;;;;15.18;12.20;;;;;;;;;;4973457;28;20104;-72
2021/08/27 09:26:56;;;;;;;11.20;9.80;;;;;;;;;;4972156;28;20029;-70
2021/08/27 09:29:44;;;;;;;13.55;10.23;;;;;;;;;;4973811;28;20489;-70
2021/08/27 09:32:17;;;;;;;14.93;10.68;;;;;;;;;;4966856;28;20386;-69
2021/08/27 09:34:43;;;;;;;12.55;10.90;;;;;;;;;;4973558;28;20484;-71
2021/08/27 09:37:09;;;;;;;13.73;10.65;;;;;;;;;;4971617;28;20045;-70
2021/08/27 09:39:35;;;;;;;13.40;10.85;;;;;;;;;;4974390;28;20029;-66
2021/08/27 09:42:02;;;;;;;14.35;11.40;;;;;;;;;;4975023;28;20019;-67
2021/08/27 09:44:28;;;;;;;16.23;11.52;;;;;;;;;;4974975;28;20034;-62
2021/08/27 09:47:00;;;;;;;14.85;10.80;;;;;;;;;;4965858;28;20023;-68
2021/08/27 09:49:26;;;;;;;14.07;10.02;;;;;;;;;;4979370;28;20030;-67
2021/08/27 09:51:52;;;;;;;13.18;9.90;;;;;;;;;;4974993;28;20038;-66
2021/08/27 09:54:23;;;;;;;13.50;10.25;;;;;;;;;;4975127;28;20488;-65
2021/08/27 09:56:52;;;;;;;13.05;10.73;;;;;;;;;;4973289;28;20047;-66
2021/08/27 09:59:18;;;;;;;12.68;10.68;;;;;;;;;;4976593;28;20072;-66
2021/08/27 10:01:48;;;;;;;12.13;9.75;;;;;;;;;;4974802;28;20031;-69
2021/08/27 10:04:15;;;;;;;11.93;9.43;;;;;;;;;;4982887;28;20034;-72
2021/08/27 10:06:56;;;;;;;13.45;10.38;;;;;;;;;;4976398;28;20011;-71
2021/08/27 10:09:45;;;;;;;12.25;10.52;;;;;;;;;;4925439;29;20040;-72
2021/08/27 10:12:22;;;;;;;;;;;;;;;;;;;;;
2021/08/27 10:14:49;;;;;;;13.05;9.98;;;;;;;;;;4913240;29;20064;-70
2021/08/27 10:17:18;;;;;;;15.45;8.98;;;;;;;;;;4916002;29;20087;-72
2021/08/27 10:19:44;;;;;;;11.20;9.43;;;;;;;;;;4898687;29;20036;-68
2021/08/27 10:22:10;;;;;;;11.73;9.40;;;;;;;;;;4910991;29;20067;-68
2021/08/27 10:24:36;;;;;;;11.23;9.60;;;;;;;;;;4909201;29;20048;-68
2021/08/27 10:27:02;;;;;;;11.10;9.52;;;;;;;;;;4906566;29;20032;-67
2021/08/27 10:29:29;;;;;;;11.63;9.82;;;;;;;;;;4907448;29;20062;-68
2021/08/27 10:31:56;;;;;;;13.93;9.63;;;;;;;;;;4912627;29;20399;-69
2021/08/27 10:34:40;;;;;;;13.07;9.95;;;;;;;;;;4916958;29;20028;-71
2021/08/27 10:37:07;;;;;;;10.65;8.40;;;;;;;;;;4917029;29;20036;-76
2021/08/27 10:39:59;;;;;;;11.10;8.98;;;;;;;;;;4927853;28;20038;-75
2021/08/27 10:42:44;;;;;;;13.35;8.50;;;;;;;;;;4923589;29;20494;-74
2021/08/27 10:45:10;;;;;;;12.43;8.82;;;;;;;;;;4920623;29;20525;-69
2021/08/27 10:48:06;;;;;;;11.18;8.07;;;;;;;;;;4916978;29;20044;-70
2021/08/27 10:50:32;;;;;;;11.55;9.18;;;;;;;;;;4935224;29;20076;-70
2021/08/27 10:53:17;;;;;;;9.95;8.48;;;;;;;;;;4926160;29;20044;-70
2021/08/27 10:55:43;;;;;;;10.88;8.45;;;;;;;;;;4926049;29;20043;-71
2021/08/27 10:58:13;;;;;;;10.60;8.20;;;;;;;;;;4899291;29;20025;-69
2021/08/27 11:00:41;;;;;;;10.02;8.30;;;;;;;;;;4898151;29;20040;-72
2021/08/27 11:03:08;;;;;;;12.30;9.52;;;;;;;;;;4901301;29;20029;-70
2021/08/27 11:05:45;;;;;;;11.00;8.73;;;;;;;;;;4899055;29;20074;-74
2021/08/27 11:08:13;;;;;;;12.85;9.45;;;;;;;;;;4898886;29;20033;-71
2021/08/27 11:10:42;;;;;;;14.38;9.63;;;;;;;;;;4895427;29;20029;-66
2021/08/27 11:13:13;;;;;;;13.55;9.68;;;;;;;;;;4897887;29;20051;-74
2021/08/27 11:15:39;;;;;;;12.40;9.32;;;;;;;;;;4898877;29;20052;-73
2021/08/27 11:18:17;;;;;;;14.80;8.75;;;;;;;;;;4900345;29;20043;-75
2021/08/27 11:20:44;;;;;;;15.40;9.63;;;;;;;;;;4975090;28;20034;-71
2021/08/27 11:23:10;;;;;;;12.07;9.82;;;;;;;;;;4973691;28;20041;-69
2021/08/27 11:28:44;;;;;;;12.23;9.02;;;;;;;;;;4971850;28;20046;-72
2021/08/27 11:31:12;;;;;;;12.75;9.40;;;;;;;;;;4975070;28;20043;-69
2021/08/27 11:33:47;;;;;;;14.30;9.50;;;;;;;;;;4975020;28;20055;-71
2021/08/27 11:36:13;;;;;;;12.55;9.38;;;;;;;;;;4957592;28;20034;-68
2021/08/27 11:38:40;;;;;;;13.25;8.73;;;;;;;;;;4956777;28;20548;-72
2021/08/27 11:41:06;;;;;;;13.02;9.30;;;;;;;;;;4972635;28;20034;-73
2021/08/27 11:43:37;;;;;;;12.88;9.32;;;;;;;;;;4974996;28;20023;-72
2021/08/27 11:46:05;;;;;;;9.93;8.60;;;;;;;;;;4957411;28;20552;-68
2021/08/27 11:48:41;;;;;;;13.25;9.18;;;;;;;;;;4974008;28;20027;-69
2021/08/27 11:51:12;;;;;;;10.68;8.23;;;;;;;;;;4954886;28;20500;-69
2021/08/27 11:54:01;;;;;;;10.63;8.15;;;;;;;;;;4977364;28;20078;-75
2021/08/27 11:56:37;;;;;;;10.50;7.93;;;;;;;;;;4976809;28;20101;-76
2021/08/27 11:59:23;;;;;;;12.90;8.18;;;;;;;;;;4963900;28;20034;-76
2021/08/27 12:01:56;;;;;;;11.52;8.57;;;;;;;;;;4965251;28;20040;-73
2021/08/27 12:05:16;;;;;;;;;;;;;;;;;;;;;
2021/08/27 12:08:16;;;;;;;12.50;8.07;;;;;;;;;;4949693;28;20039;-73
2021/08/27 12:13:52;;;;;;;9.98;7.18;;;;;;;;;;4964839;28;20034;-74
2021/08/27 12:16:19;;;;;;;9.88;7.30;;;;;;;;;;4973117;28;20027;-74
2021/08/27 12:18:50;;;;;;;10.52;7.47;;;;;;;;;;4965022;28;20019;-71
2021/08/27 12:21:20;;;;;;;10.50;7.75;;;;;;;;;;4962208;28;20047;-65
2021/08/27 12:23:56;;;;;;;10.55;7.28;;;;;;;;;;4989819;28;20022;-69
2021/08/27 12:26:22;;;;;;;12.23;8.02;;;;;;;;;;4969075;28;20026;-73
2021/08/27 12:28:48;;;;;;;8.63;7.10;;;;;;;;;;4975245;28;20094;-69
2021/08/27 12:31:15;;;;;;;8.77;7.38;;;;;;;;;;4967100;28;20046;-69
2021/08/27 12:33:41;;;;;;;8.57;6.82;;;;;;;;;;4980874;28;20031;-69
2021/08/27 12:36:11;;;;;;;9.52;7.18;;;;;;;;;;4994865;28;20045;-74
2021/08/27 12:38:41;;;;;;;10.05;7.38;;;;;;;;;;4980878;28;20409;-73
2021/08/27 12:41:13;;;;;;;8.80;6.50;;;;;;;;;;4978625;28;20035;-73
2021/08/27 12:43:39;;;;;;;8.10;6.22;;;;;;;;;;4972535;28;20089;-72
2021/08/27 12:46:05;;;;;;;7.95;5.93;;;;;;;;;;4978300;28;20027;-73
2021/08/27 12:48:32;;;;;;;7.28;6.13;;;;;;;;;;4977316;28;20034;-71
2021/08/27 12:51:10;;;;;;;8.85;5.85;;;;;;;;;;4977048;28;20094;-73
2021/08/27 12:53:36;;;;;;;7.57;5.70;;;;;;;;;;4977660;28;20030;-71
2021/08/27 12:56:10;;;;;;;6.97;5.20;;;;;;;;;;4947560;28;20147;-69
2021/08/27 12:58:36;;;;;;;;;;;;;;;;;;4977361;28;20027;-73
2021/08/27 13:01:12;;;;;;;8.68;6.25;;;;;;;;;;4977318;28;19910;-70
2021/08/27 13:03:42;;;;;;;6.10;5.18;;;;;;;;;;4981770;28;20036;-70
2021/08/27 13:06:28;;;;;;;7.78;5.65;;;;;;;;;;4981404;28;20377;-66
2021/08/27 13:09:20;;;;;;;7.00;5.13;;;;;;;;;;4976796;28;20500;-73
2021/08/27 13:11:46;;;;;;;7.15;5.93;;;;;;;;;;4916657;29;20055;-72
2021/08/27 13:14:16;;;;;;;6.78;5.13;;;;;;;;;;4917841;29;20036;-69
2021/08/27 13:16:56;;;;;;;7.25;5.47;;;;;;;;;;4914179;29;20058;-69
2021/08/27 13:19:24;;;;;;;7.32;5.07;;;;;;;;;;4921846;29;20096;-68
2021/08/27 13:21:50;;;;;;;7.47;5.32;;;;;;;;;;4904573;29;20096;-69
2021/08/27 13:24:16;;;;;;;6.35;5.18;;;;;;;;;;4922870;29;20032;-64
2021/08/27 13:26:52;;;;;;;7.25;5.53;;;;;;;;;;4907297;29;20040;-65
2021/08/27 13:29:18;;;;;;;7.82;5.55;;;;;;;;;;4916462;29;20069;-65
2021/08/27 13:31:44;;;;;;;7.65;6.45;;;;;;;;;;4915129;29;20048;-64
2021/08/27 13:34:10;;;;;;;6.90;5.63;;;;;;;;;;4909843;29;20134;-68
2021/08/27 13:36:36;;;;;;;8.73;6.18;;;;;;;;;;4916205;29;20431;-64
2021/08/27 13:39:03;;;;;;;8.85;6.45;;;;;;;;;;4914697;29;20039;-69
2021/08/27 13:41:29;;;;;;;6.35;5.25;;;;;;;;;;4909320;29;20047;-64
2021/08/27 13:43:55;;;;;;;6.05;5.10;;;;;;;;;;4917167;29;20422;-64
2021/08/27 13:46:21;;;;;;;6.78;5.80;;;;;;;;;;4933140;29;20087;-71
2021/08/27 13:48:50;;;;;;;11.15;6.93;;;;;;;;;;4960797;28;20035;-71
2021/08/27 13:51:16;;;;;;;9.68;6.75;;;;;;;;;;4974765;28;20030;-73
2021/08/27 13:53:48;;;;;;;7.32;5.78;;;;;;;;;;4958082;28;20030;-69
2021/08/27 13:56:14;;;;;;;7.60;5.63;;;;;;;;;;4959316;28;20024;-76
2021/08/27 13:58:40;;;;;;;7.43;6.05;;;;;;;;;;4975572;28;20081;-75
2021/08/27 14:01:34;;;;;;;8.90;5.85;;;;;;;;;;4976799;28;20035;-75
2021/08/27 14:04:00;;;;;;;6.57;5.90;;;;;;;;;;4978736;28;20051;-71
2021/08/27 14:07:02;;;;;;;9.95;6.55;;;;;;;;;;4974090;28;20397;-77
2021/08/27 14:09:29;;;;;;;6.95;5.72;;;;;;;;;;4914401;29;20047;-68
2021/08/27 14:11:55;;;;;;;8.18;6.07;;;;;;;;;;4914870;29;20084;-68
2021/08/27 14:14:47;;;;;;;8.10;5.95;;;;;;;;;;4917313;29;20043;-73
2021/08/27 14:17:14;;;;;;;7.75;5.28;;;;;;;;;;4924533;29;20068;-76
2021/08/27 14:19:41;;;;;;;7.38;5.32;;;;;;;;;;4918659;29;20191;-76
2021/08/27 14:22:07;;;;;;;9.43;5.43;;;;;;;;;;4914227;29;20064;-66
2021/08/27 14:24:34;;;;;;;7.35;5.20;;;;;;;;;;4908624;29;20056;-66
2021/08/27 14:27:00;;;;;;;8.63;5.40;;;;;;;;;;4912311;29;20047;-70
2021/08/27 14:29:39;;;;;;;7.80;4.93;;;;;;;;;;4916537;29;20028;-71
2021/08/27 14:32:06;;;;;;;5.85;4.82;;;;;;;;;;4921580;29;20047;-76
2021/08/27 14:34:32;;;;;;;10.25;5.35;;;;;;;;;;4910950;29;20048;-76
2021/08/27 14:36:58;;;;;;;8.77;5.00;;;;;;;;;;4886908;29;20495;-63
2021/08/27 14:39:24;;;;;;;5.78;4.63;;;;;;;;;;4903788;29;20040;-67
2021/08/27 14:41:50;;;;;;;5.88;4.50;;;;;;;;;;4898862;29;20055;-67
2021/08/27 14:44:16;;;;;;;8.32;4.72;;;;;;;;;;4895603;29;20435;-62
2021/08/27 14:46:43;;;;;;;6.13;4.50;;;;;;;;;;4929251;29;20043;-71
2021/08/27 14:49:09;;;;;;;6.82;4.78;;;;;;;;;;4937284;29;20044;-64
2021/08/27 14:51:35;;;;;;;6.47;4.70;;;;;;;;;;4933802;29;20176;-63
2021/08/27 14:54:01;;;;;;;6.97;4.82;;;;;;;;;;4933853;29;20034;-67